Detailed Flight Report of Nuri Burak ERKAL ;
Number CXD079 
Departure Aerodrome LTAI 
Arrival Aerodrome LTCB

Map generated by the Great Circle Mapper - copyright © Karl L. Swartz.

Pilot In Command CXD079 : Nuri Burak Erkal
Aircraft B773 / TC-NZL
Date Of Flight 2020-06-24
Departure Time 03:24 UTC
Arrival Time 05:04 UTC
Block Time 01:40
Distance 593 Nm.
Used Fuel 24,490 Lbs.
   
Detailed Flight Log [2020/06/24 03:39:00]
Flight IATA:C001
Pilot Number:079
Company ICAO:CXD
Aircraft Type:B773
Aircraft Registration:TC-NZL
Departing Airport: LTAI
Destination Airport: LTCB
Alternate Airport:LTAC
Online: VATSIM
Route:HISAR UW77 BAG UW71 CRM UM11 EMLAD
Flight Level:FL370
No pause
03:39 Zero fuel Weight: 471097 Lbs, Fuel Weight: 34347 Lbs
03:39 VATSIM:LTAI 231520Z 14009KT 110V170 9999 FEW015CB BKN025 24/18 Q1012 NOSIG
03:39 VATSIM:LTCB 231450Z 07009KT 9999 FEW012 FEW025CB BKN033 25/22 Q1008
03:43 Parking Brakes off
03:51 VR= 169 Knots
03:51 V2= 174 Knots
03:51 Take-off
03:51 Take off Weight: 504376 Lbs
03:51 Wind: 133º @ 009 Knots Heading: 184º
03:51 POS N36º 53´ 58´´ E030º 47´ 33´´
03:51 N11 92 N12 92
03:51 Flaps:5º at 176 Knots
03:52 Gear Up: 180 Knots
03:53 Flaps:1º at 170 Knots
03:53 Flaps:Up at 213 Knots
04:06 Wind:228º@100 Knots Heading: 012º Ground Speed: 5
82 Knots Altitude 32496 ft
04:08 TOC
04:08 Fuel Weight: 23625 Lb
04:21 Wind:228º@096 Knots Heading: 071º Ground Speed: 580 Knots Altitude 36942 ft
04:26 TOD
04:26 Fuel Weight: 19494 Lb
04:36 Wind:229º@053 Knots Heading: 054º Ground Speed: 456 Knots Altitude 25570 ft
04:51 Wind:188º@009 Knots Heading: 081º Ground Speed: 339 Knots Altitude 10095 ft
04:59 Flaps:1º at 205 Knots
04:59 Flaps:5º at 199 Knots
04:59 Flaps:15º at 197 Knots
05:01 Gear Down: 173 Knots
05:02 Flaps:30º at 172 Knots
05:02 Flaps:35º at 137 Knots
05:03 Flaps:Full at 141 Knots
05:04 Gear Up: 168 Knots
05:04 Gear Down: 173 Knots
05:04 Gear Up: 178 Knots
05:05 Flaps:35º at 163 Knots
05:05 Flaps:30º at 179 Knots
05:05 Flaps:15º at 200 Knots
05:05 Flaps:5º at 200 Knots
05:05 Flaps:1º at 179 Knots
05:05 Flaps:Up at 195 Knots
05:06 Wind:114º@005 Knots Heading: 333º Ground Speed: 222 Knots Alti
tude 3001 ft
05:14 Flaps:1º at 186 Knots
05:14 Flaps:5º at 181 Knots
05:14 Flaps:15º at 179 Knots
05:17 Gear Down: 189 Knots
05:18 Flaps:30º at 184 Knots
05:18 Flaps:35º at 163 Knots
05:19 Flaps:Full at 150 Knots
05:21 Wind:080º@008 Knots Heading: 282º Ground Speed: 153 Knots Altitude 403 ft
05:21 TouchDown:Rate -150 ft/min Speed: 129 Knots
05:21 VATSIM:LTCB 231650Z 08008KT 9999 BKN028 24/22 Q1007
05:21 Land
05:21 Wind:080º@008 Knots
05:21 Heading: 282º
05:21 Flight Duration: 01:30
05:21 Landing Weight: 481094 Lbs
05:21 POS N40º 58´ 01´´ E038º 05´ 03´´
05:23 Parking brakes on
05:23 Block to Block Duration: 01:40
05:23 Final Fuel: 9856 Lbls
05:23 Spent Fuel: 24490 Lbls
05:23 Flight Length: 593 NM
05:23 TOD Land Length: 296 NM

Text Link of Flight Log http://www.candanair.net/acars/logs/CXD07920200624033900.txt
   

[ Back ]